Data for 11/27/2015

Time Sea-Level Adjusted Pressure Absolute Pressure Temperature Relative Humidity Dew Point   
(mb) (inHg) (mb) (inHg) (C) (F) (%) (C) (F)
00:05 1029 30.39 858 25.34 -14.3 6.2 76 -17.7 0.2
00:10 1029 30.39 858 25.34 -14.3 6.2 76 -17.7 0.1
00:15 1029 30.39 858 25.34 -14.4 6.1 75 -17.9 -0.1
00:20 1029 30.39 858 25.34 -14.6 5.7 77 -17.8 0
00:25 1029 30.39 858 25.34 -14.5 5.8 77 -17.7 0.2
00:30 1029 30.39 858 25.34 -14.3 6.2 76 -17.6 0.2
00:35 1029 30.39 858 25.34 -14.5 5.9 78 -17.6 0.4
00:40 1029 30.39 858 25.34 -14.7 5.6 79 -17.6 0.4
00:45 1029 30.39 859 25.37 -14.7 5.6 78 -17.8 0
00:50 1029 30.39 859 25.37 -14.5 6 73 -18.2 -0.8
00:55 1029 30.39 859 25.37 -14.5 6 72 -18.5 -1.3
01:00 1029 30.39 859 25.37 -14.9 5.1 74 -18.5 -1.4
01:05 1029 30.39 858 25.34 -14.9 5.3 75 -18.3 -1
01:10 1029 30.39 859 25.37 -14.9 5.3 80 -17.6 0.3
01:15 1029 30.39 859 25.37 -14.2 6.5 75 -17.7 0.1
01:20 1029 30.39 858 25.34 -14.2 6.4 73 -18.1 -0.5
01:25 1029 30.39 858 25.34 -14.7 5.5 74 -18.4 -1.2
01:30 1029 30.39 858 25.34 -15.1 4.7 75 -18.7 -1.6
01:35 1029 30.39 858 25.34 -15.4 4.3 79 -18.3 -1
01:40 1029 30.39 858 25.34 -15.1 4.7 77 -18.3 -1
01:45 1029 30.39 858 25.34 -15 5 76 -18.3 -0.9
01:50 1029 30.39 858 25.34 -14.9 5.1 76 -18.2 -0.8
01:55 1029 30.39 858 25.34 -15 4.9 78 -18.1 -0.6
02:00 1029 30.39 859 25.37 -15 5.1 78 -18 -0.4
02:05 1029 30.39 858 25.34 -14.9 5.2 77 -18 -0.4
02:10 1029 30.39 858 25.34 -14.9 5.2 79 -17.8 -0.1
02:15 1029 30.39 858 25.34 -14.9 5.2 78 -17.9 -0.2
02:20 1029 30.39 858 25.34 -14.9 5.2 77 -18.1 -0.6
02:25 1029 30.39 858 25.34 -15.1 4.9 77 -18.3 -0.9
02:30 1029 30.39 858 25.34 -15.1 4.7 78 -18.2 -0.7
02:35 1029 30.39 858 25.34 -15 5.1 77 -18.1 -0.6
02:40 1029 30.39 858 25.34 -14.9 5.2 76 -18.2 -0.7
02:45 1029 30.39 858 25.34 -14.9 5.2 76 -18.2 -0.8
02:50 1029 30.39 858 25.34 -14.7 5.5 75 -18.2 -0.7
02:55 1029 30.39 858 25.34 -14.8 5.4 75 -18.2 -0.8
03:00 1029 30.39 858 25.34 -15 5.1 75 -18.4 -1.1
03:05 1029 30.39 858 25.34 -15 5 77 -18.2 -0.8
03:10 1029 30.39 858 25.34 -15 5.1 78 -17.9 -0.3
03:15 1029 30.39 858 25.34 -14.8 5.3 77 -18.1 -0.5
03:20 1029 30.39 858 25.34 -15.1 4.9 76 -18.4 -1.1
03:25 1029 30.39 858 25.34 -15.2 4.7 77 -18.4 -1.1
03:30 1029 30.39 858 25.34 -14.9 5.2 74 -18.5 -1.3
03:35 1029 30.39 858 25.34 -14.7 5.5 74 -18.4 -1.1
03:40 1029 30.39 858 25.34 -14.8 5.4 74 -18.4 -1.1
03:45 1029 30.39 858 25.34 -14.8 5.3 74 -18.4 -1.2
03:50 1029 30.39 858 25.34 -15 5 74 -18.6 -1.5
03:55 1029 30.39 858 25.34 -15.4 4.2 76 -18.7 -1.7
04:00 1029 30.39 858 25.34 -15.3 4.4 76 -18.6 -1.4
04:05 1029 30.39 858 25.34 -15.2 4.7 75 -18.6 -1.4
04:10 1029 30.39 858 25.34 -15.3 4.5 75 -18.7 -1.7
04:15 1029 30.39 858 25.34 -15.6 3.9 76 -18.9 -2.1
04:20 1029 30.39 858 25.34 -15.7 3.7 76 -19 -2.3
04:25 1029 30.39 858 25.34 -15.7 3.7 77 -18.9 -2
04:30 1029 30.39 858 25.34 -15.5 4.1 77 -18.7 -1.7
04:35 1029 30.39 858 25.34 -15.5 4.2 77 -18.6 -1.5
04:40 1029 30.39 858 25.34 -15.5 4.1 76 -18.8 -1.8
04:45 1029 30.39 858 25.34 -15.4 4.3 75 -18.9 -1.9
04:50 1029 30.39 858 25.34 -15.3 4.5 77 -18.5 -1.3
04:55 1029 30.39 858 25.34 -15.2 4.7 76 -18.5 -1.2
05:00 1029 30.39 858 25.34 -15.2 4.6 77 -18.5 -1.2
05:05 1029 30.39 858 25.34 -15.3 4.6 75 -18.7 -1.7
05:10 1029 30.39 858 25.34 -15.3 4.6 76 -18.6 -1.5
05:15 1029 30.39 858 25.34 -15.4 4.3 77 -18.6 -1.5
05:20 1029 30.39 858 25.34 -15.3 4.4 76 -18.6 -1.6
05:25 1029 30.39 858 25.34 -15.4 4.3 76 -18.7 -1.7
05:30 1029 30.39 858 25.34 -15.5 4.1 76 -18.9 -2
05:35 1029 30.39 858 25.34 -15.7 3.8 78 -18.7 -1.7
05:40 1029 30.39 858 25.34 -14.8 5.3 74 -18.5 -1.2
05:45 1029 30.39 858 25.34 -14.8 5.4 74 -18.5 -1.2
05:50 1029 30.39 858 25.34 -14.6 5.7 74 -18.3 -1
05:55 1029 30.39 858 25.34 -14.6 5.8 73 -18.4 -1.1
06:00 1029 30.39 858 25.34 -14.5 6 73 -18.4 -1.1
06:05 1029 30.39 858 25.34 -14.7 5.6 73 -18.5 -1.3
06:10 1029 30.39 858 25.34 -14.8 5.3 74 -18.5 -1.4
06:15 1029 30.39 858 25.34 -14.9 5.1 73 -18.7 -1.7
06:20 1029 30.39 858 25.34 -15 5 74 -18.7 -1.7
06:25 1029 30.39 858 25.34 -15.2 4.6 74 -18.9 -1.9
06:30 1029 30.39 858 25.34 -15.5 4.2 75 -18.9 -2.1
06:35 1029 30.39 858 25.34 -15.7 3.7 77 -18.9 -2
06:40 1029 30.39 858 25.34 -15.9 3.5 77 -19 -2.2
06:45 1029 30.39 858 25.34 -15.7 3.8 76 -19 -2.2
06:50 1029 30.39 858 25.34 -15.3 4.4 74 -18.9 -2
06:55 1028 30.36 858 25.34 -15.3 4.4 73 -19.1 -2.3
07:00 1028 30.36 858 25.34 -15.5 4.1 75 -19.1 -2.3
07:05 1028 30.36 858 25.34 -15.7 3.8 74 -19.3 -2.7
07:10 1028 30.36 858 25.34 -15.8 3.7 74 -19.4 -2.9
07:15 1028 30.36 858 25.34 -16 3.3 77 -19.1 -2.4
07:20 1028 30.36 858 25.34 -16 3.2 76 -19.3 -2.7
07:25 1028 30.36 858 25.34 -16 3.3 77 -19.2 -2.5
07:30 1028 30.36 857 25.31 -15.2 4.7 74 -18.8 -1.8
07:35 1028 30.36 858 25.34 -15 5.1 73 -18.8 -1.9
07:40 1028 30.36 858 25.34 -15.2 4.7 73 -19 -2.3
07:45 1028 30.36 858 25.34 -15.5 4 74 -19.2 -2.6
07:50 1028 30.36 858 25.34 -15.7 3.8 74 -19.3 -2.7
07:55 1028 30.36 858 25.34 -15.7 3.7 75 -19.3 -2.7
08:00 1028 30.36 858 25.34 -15.6 3.9 74 -19.2 -2.6
08:05 1028 30.36 858 25.34 -15.7 3.7 75 -19.2 -2.6
08:10 1028 30.36 858 25.34 -15.7 3.7 75 -19.2 -2.6
08:15 1028 30.36 858 25.34 -15.8 3.6 75 -19.3 -2.7
08:20 1028 30.36 858 25.34 -15.9 3.4 75 -19.4 -2.9
08:25 1028 30.36 858 25.34 -15.9 3.4 75 -19.3 -2.8
08:30 1028 30.36 858 25.34 -15.9 3.3 75 -19.4 -2.9
08:35 1028 30.36 858 25.34 -16 3.3 75 -19.4 -2.9
08:40 1028 30.36 858 25.34 -16 3.2 75 -19.4 -3
08:45 1028 30.36 858 25.34 -16.2 2.8 76 -19.5 -3.1
08:50 1028 30.36 858 25.34 -16.3 2.6 77 -19.4 -3
08:55 1028 30.36 858 25.34 -16 3.2 76 -19.3 -2.7
09:00 1028 30.36 858 25.34 -15.8 3.6 74 -19.3 -2.8
09:05 1029 30.39 858 25.34 -16 3.2 76 -19.4 -2.9
09:10 1029 30.39 858 25.34 -15.5 4.1 71 -19.7 -3.4
09:15 1029 30.39 858 25.34 -15.4 4.2 70 -19.7 -3.4
09:20 1029 30.39 858 25.34 -15.3 4.5 69 -19.8 -3.6
09:25 1029 30.39 858 25.34 -15.4 4.3 69 -19.8 -3.6
09:30 1029 30.39 858 25.34 -15.5 4.2 69 -19.9 -3.8
09:35 1029 30.39 858 25.34 -15.5 4 70 -19.8 -3.6
09:40 1029 30.39 858 25.34 -15.4 4.4 69 -19.9 -3.8
09:45 1029 30.39 858 25.34 -15.2 4.7 69 -19.7 -3.5
09:50 1029 30.39 858 25.34 -15 5.1 68 -19.6 -3.3
09:55 1029 30.39 858 25.34 -14.6 5.7 66 -19.7 -3.4
10:00 1029 30.39 858 25.34 -14.7 5.6 67 -19.5 -3.1
10:05 1029 30.39 858 25.34 -14.5 6 66 -19.4 -3
10:10 1029 30.39 858 25.34 -14.1 6.6 65 -19.4 -2.9
10:15 1029 30.39 858 25.34 -13.8 7.2 64 -19.2 -2.6
10:20 1029 30.39 858 25.34 -13.3 8.1 63 -18.9 -2.1
10:25 1029 30.39 858 25.34 -12.8 8.9 62 -18.7 -1.7
10:30 1029 30.39 858 25.34 -13 8.6 64 -18.5 -1.3
10:35 1029 30.39 858 25.34 -13.2 8.3 64 -18.6 -1.5
10:40 1029 30.39 858 25.34 -13 8.7 64 -18.4 -1.2
10:45 1029 30.39 858 25.34 -13 8.6 64 -18.5 -1.2
10:50 1029 30.39 858 25.34 -13 8.6 64 -18.4 -1.1
10:55 1029 30.39 858 25.34 -12.7 9.2 63 -18.4 -1
11:00 1029 30.39 858 25.34 -12.5 9.6 64 -17.9 -0.3
11:05 1029 30.39 858 25.34 -12.1 10.3 61 -18.2 -0.7
11:10 1029 30.39 858 25.34 -12.1 10.3 61 -18.1 -0.6
11:15 1029 30.39 858 25.34 -11.9 10.5 62 -17.9 -0.2
11:20 1029 30.39 858 25.34 -11.7 10.9 61 -17.9 -0.2
11:25 1029 30.39 858 25.34 -11 12.3 60 -17.3 0.8
11:30 1029 30.39 858 25.34 -10.5 13.2 58 -17.1 1.1
11:35 1029 30.39 858 25.34 -10.9 12.3 61 -17 1.4
11:40 1029 30.39 858 25.34 -11.4 11.6 64 -16.9 1.5
11:45 1029 30.39 858 25.34 -11.1 12 62 -17 1.4
11:50 1029 30.39 858 25.34 -11 12.1 61 -17.1 1.1
11:55 1029 30.39 858 25.34 -9.9 14.2 58 -16.7 2
12:00 1029 30.39 858 25.34 -9.7 14.6 56 -16.9 1.6
12:05 1029 30.39 858 25.34 -9.8 14.4 54 -17.5 0.5
12:10 1029 30.39 858 25.34 -9.8 14.4 54 -17.3 0.8
12:15 1029 30.39 858 25.34 -9.7 14.5 53 -17.5 0.4
12:20 1029 30.39 858 25.34 -9.7 14.5 53 -17.6 0.3
12:25 1029 30.39 858 25.34 -9 15.7 50 -17.7 0.2
12:30 1029 30.39 858 25.34 -9.4 15 53 -17.3 0.9
12:35 1028 30.36 858 25.34 -9.6 14.7 52 -17.6 0.3
12:40 1028 30.36 858 25.34 -10 13.9 58 -16.8 1.7
12:45 1028 30.36 857 25.31 -9.5 14.9 52 -17.7 0.2
12:50 1028 30.36 857 25.31 -9.1 15.7 51 -17.5 0.5
12:55 1028 30.36 857 25.31 -8.8 16.3 52 -17 1.3
13:00 1028 30.36 857 25.31 -9 15.9 51 -17.4 0.6
13:05 1028 30.36 857 25.31 -10.1 13.7 58 -16.9 1.7
13:10 1028 30.36 857 25.31 -9.7 14.5 52 -17.8 0
13:15 1028 30.36 857 25.31 -9.8 14.4 55 -17.2 1.1
13:20 1028 30.36 857 25.31 -9.6 14.7 55 -16.9 1.5
13:25 1028 30.36 857 25.31 -8.9 15.9 51 -17.2 1
13:30 1028 30.36 857 25.31 -7.9 17.7 48 -17.1 1.2
13:35 1028 30.36 857 25.31 -8.1 17.4 50 -16.7 1.9
13:40 1028 30.36 857 25.31 -7.8 18 48 -16.9 1.6
13:45 1028 30.36 857 25.31 -7.6 18.4 48 -16.8 1.7
13:50 1028 30.36 857 25.31 -7.9 17.7 50 -16.6 2.1
13:55 1028 30.36 857 25.31 -8.1 17.5 49 -17 1.5
14:00 1028 30.36 857 25.31 -7.9 17.7 48 -17 1.4
14:05 1028 30.36 857 25.31 -8 17.6 48 -17.1 1.2
14:10 1028 30.36 857 25.31 -8.2 17.3 50 -17 1.5
14:15 1028 30.36 857 25.31 -8.3 17.1 52 -16.6 2.1
14:20 1028 30.36 857 25.31 -8.2 17.2 50 -16.9 1.6
14:25 1027 30.33 857 25.31 -7.8 18 49 -16.8 1.7
14:30 1027 30.33 857 25.31 -7.8 18 48 -17 1.5
14:35 1027 30.33 857 25.31 -7.3 18.9 45 -17.2 1
14:40 1027 30.33 857 25.31 -7.3 18.8 47 -16.9 1.7
14:45 1027 30.33 857 25.31 -7.6 18.3 48 -16.8 1.7
14:50 1027 30.33 856 25.28 -7.3 18.9 46 -17 1.4
14:55 1027 30.33 856 25.28 -8 17.5 49 -16.9 1.6
15:00 1027 30.33 856 25.28 -7.7 18.1 45 -17.8 -0
15:05 1027 30.33 856 25.28 -7.3 18.9 46 -17.1 1.2
15:10 1027 30.33 856 25.28 -7.3 19 45 -17.1 1.1
15:15 1027 30.33 856 25.28 -7.2 19.1 45 -17.2 1
15:20 1027 30.33 856 25.28 -7.2 19.1 45 -17.2 1
15:25 1027 30.33 856 25.28 -7.4 18.8 46 -17.1 1.3
15:30 1027 30.33 856 25.28 -7.5 18.5 47 -17 1.4
15:35 1027 30.33 856 25.28 -7.7 18.2 48 -16.9 1.5
15:40 1027 30.33 856 25.28 -7.6 18.3 48 -16.8 1.7
15:45 1027 30.33 856 25.28 -7.8 18 49 -16.8 1.8
15:50 1027 30.33 856 25.28 -7.9 17.7 48 -17.2 1.1
15:55 1027 30.33 856 25.28 -8 17.6 49 -17.1 1.3
16:00 1027 30.33 856 25.28 -8.1 17.4 49 -17.1 1.1
16:05 1027 30.33 856 25.28 -7.7 18.1 47 -17.2 1.1
16:10 1027 30.33 856 25.28 -7.9 17.8 47 -17.3 0.8
16:15 1027 30.33 856 25.28 -7.8 18 47 -17.3 0.8
16:20 1027 30.33 856 25.28 -7.6 18.3 46 -17.3 0.9
16:25 1027 30.33 856 25.28 -7.7 18.1 48 -17.1 1.3
16:30 1027 30.33 856 25.28 -8.1 17.5 49 -17.1 1.2
16:35 1027 30.33 856 25.28 -8.3 17.2 49 -17.2 1
16:40 1027 30.33 856 25.28 -8.3 17 49 -17.2 1
16:45 1027 30.33 856 25.28 -8.4 16.9 49 -17.4 0.7
16:50 1027 30.33 856 25.28 -8.5 16.8 51 -16.9 1.5
16:55 1027 30.33 856 25.28 -8.6 16.5 51 -17 1.4
17:00 1027 30.33 856 25.28 -8.8 16.3 52 -17 1.3
17:05 1027 30.33 856 25.28 -8.7 16.4 51 -17.1 1.3
17:10 1027 30.33 856 25.28 -8.9 15.9 53 -16.9 1.5
17:15 1027 30.33 856 25.28 -8.9 15.9 54 -16.7 1.9
17:20 1027 30.33 856 25.28 -9.1 15.7 53 -16.9 1.5
17:25 1027 30.33 856 25.28 -9.2 15.4 55 -16.8 1.8
17:30 1026 30.3 856 25.28 -9.6 14.7 57 -16.6 2.1
17:35 1026 30.3 856 25.28 -9.8 14.4 57 -16.7 1.9
17:40 1026 30.3 856 25.28 -10.3 13.4 60 -16.8 1.8
17:45 1026 30.3 856 25.28 -10.8 12.6 62 -16.6 2.1
17:50 1026 30.3 856 25.28 -11.1 12.1 63 -16.9 1.6
17:55 1026 30.3 856 25.28 -11 12.2 63 -16.8 1.8
18:00 1026 30.3 856 25.28 -11 12.1 62 -16.9 1.5
18:05 1026 30.3 856 25.28 -11.1 12.1 63 -16.8 1.7
18:10 1026 30.3 856 25.28 -11.2 11.8 63 -16.9 1.6
18:15 1026 30.3 856 25.28 -11.4 11.5 65 -16.8 1.7
18:20 1026 30.3 856 25.28 -11.6 11.2 66 -16.7 1.9
18:25 1026 30.3 856 25.28 -11.8 10.7 67 -16.8 1.8
18:30 1027 30.33 856 25.28 -12.1 10.3 68 -16.9 1.6
18:35 1027 30.33 856 25.28 -12.1 10.3 68 -16.8 1.8
18:40 1027 30.33 856 25.28 -12.2 10 69 -16.7 1.9
18:45 1027 30.33 856 25.28 -12.3 9.9 69 -16.8 1.7
18:50 1027 30.33 856 25.28 -12.5 9.4 71 -16.8 1.7
18:55 1027 30.33 856 25.28 -12.6 9.3 70 -16.9 1.5
19:00 1027 30.33 856 25.28 -12.6 9.2 72 -16.6 2.1
19:05 1027 30.33 856 25.28 -13.4 7.9 74 -17.1 1.2
19:10 1027 30.33 856 25.28 -14.1 6.7 77 -17.3 0.8
19:15 1027 30.33 856 25.28 -14.2 6.4 77 -17.5 0.6
19:20 1027 30.33 856 25.28 -14.1 6.6 75 -17.6 0.3
19:25 1027 30.33 856 25.28 -13.9 7 74 -17.6 0.3
19:30 1027 30.33 856 25.28 -13.7 7.3 74 -17.4 0.7
19:35 1027 30.33 856 25.28 -13.5 7.7 73 -17.4 0.7
19:40 1027 30.33 856 25.28 -13.6 7.6 72 -17.6 0.3
19:45 1027 30.33 856 25.28 -13.8 7.1 73 -17.7 0.2
19:50 1027 30.33 856 25.28 -14.1 6.7 74 -17.7 0.1
19:55 1027 30.33 856 25.28 -14 6.8 74 -17.6 0.3
20:00 1027 30.33 856 25.28 -13.9 7 72 -17.8 -0.1
20:05 1027 30.33 856 25.28 -14.1 6.7 74 -17.7 0.1
20:10 1027 30.33 856 25.28 -14.3 6.4 73 -18 -0.5
20:15 1026 30.3 856 25.28 -14.7 5.6 77 -17.9 -0.2
20:20 1026 30.3 856 25.28 -15 5 77 -18.2 -0.7
20:25 1026 30.3 856 25.28 -15.5 4 79 -18.4 -1.1
20:30 1026 30.3 856 25.28 -15.4 4.2 79 -18.2 -0.8
20:35 1026 30.3 856 25.28 -15.1 4.8 78 -18.1 -0.5
20:40 1026 30.3 856 25.28 -14.9 5.2 79 -17.8 -0.1
20:45 1026 30.3 856 25.28 -15 5.1 77 -18.2 -0.7
20:50 1026 30.3 856 25.28 -15.5 4.1 79 -18.4 -1
20:55 1026 30.3 856 25.28 -15.3 4.4 81 -17.9 -0.3
21:00 1026 30.3 856 25.28 -14.6 5.6 79 -17.5 0.5
21:05 1026 30.3 856 25.28 -14.2 6.4 78 -17.3 0.9
21:10 1026 30.3 856 25.28 -14 6.7 77 -17.2 1
21:15 1026 30.3 856 25.28 -14 6.8 76 -17.4 0.7
21:20 1026 30.3 856 25.28 -14.4 6.1 78 -17.5 0.6
21:25 1026 30.3 856 25.28 -14.7 5.6 78 -17.6 0.2
21:30 1026 30.3 855 25.25 -14.7 5.5 79 -17.6 0.3
21:35 1026 30.3 856 25.28 -14.8 5.3 78 -17.9 -0.2
21:40 1026 30.3 856 25.28 -15.1 4.9 80 -17.9 -0.1
21:45 1026 30.3 856 25.28 -14.9 5.1 79 -17.8 -0.1
21:50 1026 30.3 856 25.28 -14.6 5.7 78 -17.7 0.1
21:55 1026 30.3 855 25.25 -14.4 6.2 77 -17.5 0.5
22:00 1026 30.3 855 25.25 -14.1 6.6 77 -17.3 0.9
22:05 1026 30.3 855 25.25 -13.9 6.9 76 -17.3 0.8
22:10 1026 30.3 855 25.25 -13.9 7 76 -17.2 1
22:15 1026 30.3 855 25.25 -13.9 7 77 -17.1 1.3
22:20 1026 30.3 855 25.25 -13.7 7.3 76 -17 1.4
22:25 1026 30.3 855 25.25 -13.6 7.5 75 -17.1 1.2
22:30 1026 30.3 855 25.25 -13.8 7.1 75 -17.3 0.8
22:35 1026 30.3 855 25.25 -14.1 6.6 77 -17.3 0.8
22:40 1026 30.3 855 25.25 -14.1 6.7 76 -17.4 0.6
22:45 1026 30.3 855 25.25 -14.3 6.2 78 -17.4 0.6
22:50 1026 30.3 855 25.25 -14.7 5.6 78 -17.8 0
22:55 1026 30.3 855 25.25 -14.7 5.6 78 -17.7 0.1
23:00 1026 30.3 855 25.25 -14.7 5.5 78 -17.7 0.1
23:05 1026 30.3 855 25.25 -14.6 5.7 78 -17.6 0.3
23:10 1026 30.3 855 25.25 -14.5 5.9 78 -17.6 0.4
23:15 1026 30.3 855 25.25 -14.6 5.8 78 -17.6 0.4
23:20 1026 30.3 855 25.25 -14.5 5.9 78 -17.5 0.5
23:25 1026 30.3 855 25.25 -14.2 6.4 78 -17.3 0.9
23:30 1026 30.3 855 25.25 -14 6.8 78 -17.1 1.2
23:35 1026 30.3 855 25.25 -14 6.8 77 -17.1 1.2
23:40 1026 30.3 855 25.25 -14 6.8 77 -17.2 1.1
23:45 1026 30.3 855 25.25 -14.1 6.6 78 -17.2 1.1
23:50 1026 30.3 855 25.25 -14.1 6.6 79 -17 1.4
23:55 1026 30.3 855 25.25 -13.8 7.2 78 -16.8 1.7
24:00 1026 30.3 855 25.25 -14.4 6.1 76 -17.7 0.1